Time;durP1;ratioP1;P1;durP2;ratioP2;P2;SDS_P1;SDS_P2;PMS_P1;PMS_P2;Temp;Humidity;BMP_temperature;BMP_pressure;BME280_temperature;BME280_humidity;BME280_pressure;Samples;Min_cycle;Max_cycle;Signal;HPM_P1;HPM_P2
2022/06/23 00:01:46;;;;;;;4.30;4.00;;;;;;;13.61;100.00;99430.98;1746374;81;20993;-86
2022/06/23 00:04:21;;;;;;;4.15;3.85;;;;;;;13.65;100.00;99438.00;1715883;82;21130;-89
2022/06/23 00:07:02;;;;;;;4.55;4.15;;;;;;;13.68;100.00;99430.64;1715510;82;21147;-86
2022/06/23 00:09:45;;;;;;;4.90;4.50;;;;;;;13.70;100.00;99437.02;1691324;82;21051;-86
2022/06/23 00:12:23;;;;;;;5.00;4.42;;;;;;;13.70;100.00;99433.09;1715742;82;21221;-86
2022/06/23 00:15:05;;;;;;;4.78;4.35;;;;;;;13.67;100.00;99433.41;1715346;82;21516;-87
2022/06/23 00:17:46;;;;;;;4.83;4.42;;;;;;;13.62;100.00;99437.02;1716214;83;21553;-86
2022/06/23 00:20:28;;;;;;;4.50;4.10;;;;;;;13.57;100.00;99433.58;1714896;82;21078;-86
2022/06/23 00:23:14;;;;;;;4.80;4.40;;;;;;;13.58;100.00;99439.64;1715232;82;21007;-86
2022/06/23 00:26:05;;;;;;;4.42;4.05;;;;;;;13.59;100.00;99436.02;1715138;82;21275;-85
2022/06/23 00:28:45;;;;;;;4.90;4.50;;;;;;;13.60;100.00;99429.81;1715445;82;20983;-86
2022/06/23 00:31:35;;;;;;;6.12;4.35;;;;;;;13.63;100.00;99434.73;1715405;83;21018;-86
2022/06/23 00:34:32;;;;;;;5.00;4.60;;;;;;;13.66;100.00;99429.18;1716596;83;21017;-85
2022/06/23 00:37:19;;;;;;;5.22;4.53;;;;;;;13.70;100.00;99432.58;1716406;81;20976;-87
2022/06/23 00:39:59;;;;;;;4.50;4.10;;;;;;;13.73;100.00;99436.69;1716315;81;21901;-86
2022/06/23 00:42:41;;;;;;;5.12;4.72;;;;;;;13.73;100.00;99444.04;1716216;81;21534;-86
2022/06/23 00:45:14;;;;;;;;;;;;;;;13.69;100.00;99451.90;1714704;81;21103;-87
2022/06/23 00:48:08;;;;;;;5.15;4.75;;;;;;;13.58;100.00;99455.34;1742844;82;20657;-87
2022/06/23 00:50:40;;;;;;;6.42;5.83;;;;;;;13.41;100.00;99460.55;1712696;81;21461;-86
2022/06/23 00:53:12;;;;;;;;;;;;;;;13.17;100.00;99466.52;1718785;81;21316;-86
2022/06/23 00:55:45;;;;;;;6.42;5.80;;;;;;;12.99;100.00;99462.22;1737540;82;20163;-88
2022/06/23 00:58:27;;;;;;;5.67;5.28;;;;;;;12.93;100.00;99465.48;1716445;81;21529;-86
2022/06/23 01:01:21;;;;;;;6.35;5.58;;;;;;;12.91;100.00;99463.03;1714309;81;21039;-90
2022/06/23 01:03:59;;;;;;;6.47;5.87;;;;;;;12.92;100.00;99464.67;1716504;83;21109;-87
2022/06/23 01:06:46;;;;;;;6.37;5.87;;;;;;;12.96;100.00;99465.17;1710493;81;21128;-86
2022/06/23 01:09:41;;;;;;;5.62;5.22;;;;;;;12.94;100.00;99474.45;1716249;81;21052;-86
2022/06/23 01:12:32;;;;;;;7.25;6.65;;;;;;;12.90;100.00;99467.92;1716329;81;21056;-87
2022/06/23 01:15:09;;;;;;;7.62;6.45;;;;;;;12.87;100.00;99470.04;1691296;83;38101;-86
2022/06/23 01:17:43;;;;;;;8.08;6.87;;;;;;;12.84;100.00;99472.48;1708370;81;21589;-86
2022/06/23 01:20:37;;;;;;;8.23;7.37;;;;;;;12.85;100.00;99474.59;1713457;81;21808;-86
2022/06/23 01:23:25;;;;;;;9.45;8.00;;;;;;;12.89;100.00;99472.02;1709983;83;21059;-87
2022/06/23 01:26:22;;;;;;;9.33;7.65;;;;;;;12.91;100.00;99472.65;1710570;82;21055;-86
2022/06/23 01:28:54;;;;;;;8.88;8.00;;;;;;;12.96;100.00;99472.17;1709503;83;21620;-87
2022/06/23 01:31:29;;;;;;;9.25;8.35;;;;;;;13.05;100.00;99471.23;1706262;84;21589;-89
2022/06/23 01:34:07;;;;;;;9.85;8.35;;;;;;;13.08;100.00;99469.61;1705905;83;21171;-87
2022/06/23 01:36:45;;;;;;;9.10;8.30;;;;;;;13.14;100.00;99475.50;1702438;83;21050;-86
2022/06/23 01:39:27;;;;;;;9.05;8.25;;;;;;;13.22;100.00;99474.21;1708602;83;21054;-86
2022/06/23 01:42:00;;;;;;;8.28;7.47;;;;;;;13.29;100.00;99478.32;1704712;84;21011;-87
2022/06/23 01:44:51;;;;;;;8.93;8.13;;;;;;;13.40;100.00;99475.91;1707673;83;21003;-86
2022/06/23 01:47:22;;;;;;;;;;;;;;;13.49;100.00;99471.49;1709715;82;21100;-86
2022/06/23 01:49:54;;;;;;;9.93;8.53;;;;;;;13.58;100.00;99482.30;1706892;83;20202;-87
2022/06/23 01:52:22;;;;;;;9.88;8.88;;;;;;;13.66;100.00;99482.80;1705762;83;21058;-90
2022/06/23 01:55:00;;;;;;;10.32;9.23;;;;;;;13.72;100.00;99486.88;1710243;83;21050;-88
2022/06/23 01:57:36;;;;;;;10.08;9.18;;;;;;;13.77;100.00;99488.20;1713104;83;21090;-86
2022/06/23 02:00:14;;;;;;;10.23;9.33;;;;;;;13.83;100.00;99491.45;1708755;82;21125;-89
2022/06/23 02:02:58;;;;;;;10.50;9.40;;;;;;;13.84;100.00;99493.91;1707734;84;21497;-88
2022/06/23 02:05:59;;;;;;;10.40;9.33;;;;;;;13.81;100.00;99499.95;1706322;83;21097;-86
2022/06/23 02:08:52;;;;;;;10.80;9.77;;;;;;;13.73;100.00;99495.55;1707654;84;21141;-87
2022/06/23 02:11:42;;;;;;;11.10;9.80;;;;;;;13.61;100.00;99490.30;1711735;83;21038;-86
2022/06/23 02:14:38;;;;;;;9.85;8.83;;;;;;;13.51;100.00;99486.04;1712806;83;21960;-87
2022/06/23 02:18:00;;;;;;;10.38;9.45;;;;;;;13.52;100.00;99489.48;1713145;83;21015;-86
2022/06/23 02:20:53;;;;;;;9.45;8.55;;;;;;;13.54;100.00;99495.38;1709450;83;21549;-86
2022/06/23 02:23:41;;;;;;;10.45;9.55;;;;;;;13.51;100.00;99503.54;1706026;83;20976;-87
2022/06/23 02:26:33;;;;;;;9.88;8.98;;;;;;;13.51;100.00;99499.11;1714379;82;21520;-86
2022/06/23 02:29:23;;;;;;;9.40;8.43;;;;;;;13.54;100.00;99501.42;1716420;83;21099;-86
2022/06/23 02:32:08;;;;;;;8.80;8.00;;;;;;;13.55;100.00;99502.22;1712494;83;20951;-86
2022/06/23 02:34:47;;;;;;;9.50;8.65;;;;;;;13.60;100.00;99503.88;1714013;81;21091;-86
2022/06/23 02:38:02;;;;;;;9.73;8.73;;;;;;;13.63;100.00;99510.08;1714573;81;21199;-86
2022/06/23 02:40:37;;;;;;;9.60;8.70;;;;;;;13.65;100.00;99513.36;1716184;81;21020;-86
2022/06/23 02:43:31;;;;;;;9.30;8.50;;;;;;;13.57;100.00;99515.96;1716202;81;21854;-86
2022/06/23 02:46:29;;;;;;;9.70;8.70;;;;;;;13.47;100.00;99518.73;1716224;83;21012;-86
2022/06/23 02:49:33;;;;;;;7.95;7.25;;;;;;;13.39;100.00;99514.80;1716130;81;21627;-86
2022/06/23 02:52:27;;;;;;;9.08;8.18;;;;;;;13.38;100.00;99516.58;1713329;83;20992;-86
2022/06/23 02:55:16;;;;;;;8.43;7.62;;;;;;;13.40;100.00;99526.90;1716458;81;21055;-86
2022/06/23 02:58:00;;;;;;;8.68;7.97;;;;;;;13.42;100.00;99523.61;1712947;81;21102;-86
2022/06/23 03:00:51;;;;;;;8.05;7.35;;;;;;;13.47;100.00;99521.35;1713614;81;21005;-86
2022/06/23 03:04:03;;;;;;;9.18;8.30;;;;;;;13.54;100.00;99523.65;1716468;82;25642;-86
2022/06/23 03:06:44;;;;;;;8.38;7.67;;;;;;;13.56;100.00;99522.17;1716402;81;21063;-86
2022/06/23 03:09:33;;;;;;;7.17;6.58;;;;;;;13.55;100.00;99521.36;1713687;82;21522;-86
2022/06/23 03:12:11;;;;;;;8.83;8.03;;;;;;;13.61;100.00;99522.52;1715051;81;21135;-86
2022/06/23 03:14:44;;;;;;;8.40;7.70;;;;;;;13.65;100.00;99521.70;1712840;83;21055;-87
2022/06/23 03:17:36;;;;;;;8.73;7.92;;;;;;;13.66;100.00;99518.92;1716576;81;21044;-86
2022/06/23 03:20:21;;;;;;;7.80;7.20;;;;;;;13.71;100.00;99527.59;1716307;81;21115;-86
2022/06/23 03:23:11;;;;;;;8.20;7.42;;;;;;;13.73;100.00;99532.18;1715379;81;21080;-86
2022/06/23 03:25:52;;;;;;;9.08;8.28;;;;;;;13.76;100.00;99529.22;1709535;81;21611;-86
2022/06/23 03:28:32;;;;;;;8.98;8.23;;;;;;;13.79;100.00;99530.69;1704105;82;21496;-86
2022/06/23 03:31:07;;;;;;;8.83;7.95;;;;;;;13.77;100.00;99524.83;1712265;83;21016;-86
2022/06/23 03:34:09;;;;;;;8.85;7.95;;;;;;;13.80;100.00;99522.70;1715784;82;21035;-86
2022/06/23 03:36:50;;;;;;;9.83;8.83;;;;;;;13.88;100.00;99523.17;1703649;83;21084;-86
2022/06/23 03:42:32;;;;;;;9.20;8.40;;;;;;;14.03;100.00;99527.27;1744436;81;20954;-86
2022/06/23 03:45:14;;;;;;;9.55;8.65;;;;;;;14.00;100.00;99533.66;1746410;81;21056;-86
2022/06/23 03:47:58;;;;;;;9.40;8.60;;;;;;;13.99;100.00;99544.27;1746343;81;21456;-86
2022/06/23 03:50:49;;;;;;;9.00;8.23;;;;;;;13.94;100.00;99547.38;1746278;81;21080;-86
2022/06/23 03:53:42;;;;;;;9.43;8.53;;;;;;;13.90;100.00;99550.50;1746547;79;21144;-86
2022/06/23 03:56:16;;;;;;;8.53;7.83;;;;;;;13.92;100.00;99555.06;1742545;82;21445;-87
2022/06/23 03:59:04;;;;;;;8.13;7.47;;;;;;;13.87;100.00;99556.86;1740854;81;21042;-86
2022/06/23 04:01:42;;;;;;;7.97;7.25;;;;;;;13.64;100.00;99562.72;1745285;81;20978;-89
2022/06/23 04:04:45;;;;;;;7.45;6.80;;;;;;;13.42;100.00;99565.45;1695432;84;21103;-86
2022/06/23 04:07:51;;;;;;;8.48;7.75;;;;;;;13.36;100.00;99576.05;1700669;84;21146;-86
2022/06/23 04:10:36;;;;;;;8.33;7.60;;;;;;;13.38;100.00;99571.48;1716018;82;21030;-86
2022/06/23 04:13:33;;;;;;;8.55;7.75;;;;;;;13.41;100.00;99568.56;1756221;81;21034;-88
2022/06/23 04:16:10;;;;;;;8.30;7.60;;;;;;;13.50;100.00;99569.89;1753144;81;21047;-86
2022/06/23 04:18:45;;;;;;;7.83;7.00;;;;;;;13.53;100.00;99574.31;1756561;81;21022;-86
2022/06/23 04:21:25;;;;;;;9.20;8.43;;;;;;;13.52;100.00;99576.59;1757159;81;21150;-86
2022/06/23 04:23:57;;;;;;;7.97;7.28;;;;;;;13.50;100.00;99583.77;1756610;81;21513;-86
2022/06/23 04:26:35;;;;;;;10.75;8.33;;;;;;;13.52;100.00;99583.13;1747723;80;21049;-87
2022/06/23 04:29:13;;;;;;;9.65;8.68;;;;;;;13.54;100.00;99594.77;1736133;82;21104;-86
2022/06/23 04:32:08;;;;;;;9.58;8.68;;;;;;;13.60;100.00;99591.50;1739681;82;21560;-87
2022/06/23 04:34:43;;;;;;;10.80;9.45;;;;;;;13.66;100.00;99591.36;1738652;82;21153;-86
2022/06/23 04:37:45;;;;;;;10.35;9.23;;;;;;;13.76;100.00;99599.86;1706583;84;21040;-85
2022/06/23 04:40:22;;;;;;;13.10;11.80;;;;;;;13.82;100.00;99606.25;1740159;82;20999;-86
2022/06/23 04:42:57;;;;;;;12.53;11.43;;;;;;;13.79;100.00;99596.94;1706997;84;21050;-87
2022/06/23 04:45:32;;;;;;;13.72;12.58;;;;;;;13.72;100.00;99605.09;1740202;81;21012;-86
2022/06/23 04:48:03;;;;;;;14.28;12.75;;;;;;;13.70;100.00;99610.47;1736560;82;21199;-86
2022/06/23 04:50:51;;;;;;;12.20;11.10;;;;;;;13.65;100.00;99607.53;1736447;82;21547;-88
2022/06/23 04:53:33;;;;;;;11.38;10.38;;;;;;;13.61;100.00;99611.92;1700912;84;21016;-89
2022/06/23 04:56:05;;;;;;;11.55;10.43;;;;;;;13.60;100.00;99608.98;1732464;82;21042;-86
2022/06/23 04:58:36;;;;;;;11.75;10.65;;;;;;;13.61;100.00;99604.91;1737350;82;22099;-85
2022/06/23 05:01:03;;;;;;;;;;;;;;;13.67;100.00;99603.43;1739822;82;21238;-86
2022/06/23 05:03:35;;;;;;;11.63;10.63;;;;;;;13.77;100.00;99607.23;1740126;82;20200;-86
2022/06/23 05:06:26;;;;;;;11.50;10.43;;;;;;;13.85;100.00;99609.86;1737586;82;21489;-85
2022/06/23 05:08:58;;;;;;;11.55;10.35;;;;;;;13.91;100.00;99617.06;1738881;82;21018;-86
2022/06/23 05:11:46;;;;;;;11.38;10.38;;;;;;;13.99;100.00;99619.69;1737072;82;20963;-85
2022/06/23 05:14:27;;;;;;;14.58;13.28;;;;;;;14.06;100.00;99626.89;1717152;82;21152;-85
2022/06/23 05:16:58;;;;;;;;;;;;;;;14.08;100.00;99630.98;1719711;83;21082;-85
2022/06/23 05:19:32;;;;;;;12.13;11.03;;;;;;;14.08;100.00;99630.98;1713742;82;20133;-85
2022/06/23 05:22:10;;;;;;;11.73;10.55;;;;;;;14.10;100.00;99629.02;1713931;82;21057;-85
2022/06/23 05:24:42;;;;;;;12.43;11.33;;;;;;;14.13;100.00;99630.49;1715162;82;21026;-86
2022/06/23 05:27:18;;;;;;;11.88;10.78;;;;;;;14.15;100.00;99627.23;1743838;80;21175;-86
2022/06/23 05:30:02;;;;;;;10.25;9.25;;;;;;;14.19;100.00;99629.36;1724948;82;21033;-86
2022/06/23 05:32:35;;;;;;;9.73;8.88;;;;;;;14.24;100.00;99631.49;1710247;81;21747;-85
2022/06/23 05:35:16;;;;;;;9.13;8.33;;;;;;;14.35;100.00;99635.58;1713085;82;21004;-85
2022/06/23 05:37:50;;;;;;;;;;;;;;;14.54;100.00;99624.45;1717415;81;21056;-86
2022/06/23 05:40:48;;;;;;;8.98;8.23;;;;;;;14.76;100.00;99621.16;1739170;82;21129;-85
2022/06/23 05:43:16;;;;;;;9.13;8.20;;;;;;;14.93;100.00;99620.63;1706445;83;21002;-86
2022/06/23 05:45:54;;;;;;;7.90;7.30;;;;;;;14.93;100.00;99615.38;1693604;83;21446;-86
2022/06/23 05:48:28;;;;;;;8.35;7.65;;;;;;;14.94;100.00;99620.14;1715767;83;21093;-86
2022/06/23 05:51:12;;;;;;;7.90;7.20;;;;;;;14.93;100.00;99616.69;1714610;83;21047;-86
2022/06/23 05:54:12;;;;;;;8.55;7.75;;;;;;;14.94;100.00;99612.28;1715736;83;21140;-85
2022/06/23 05:57:00;;;;;;;8.48;7.72;;;;;;;15.04;100.00;99610.77;1715531;83;21113;-87
2022/06/23 05:59:35;;;;;;;8.08;7.30;;;;;;;15.27;100.00;99606.42;1712232;83;21148;-87
2022/06/23 06:02:09;;;;;;;7.37;6.67;;;;;;;15.63;100.00;99603.78;1715712;83;21522;-85
2022/06/23 06:04:56;;;;;;;7.00;6.40;;;;;;;15.93;100.00;99603.94;1685718;85;21010;-85
2022/06/23 06:07:31;;;;;;;6.58;5.97;;;;;;;16.25;100.00;99604.67;1686824;84;21152;-85
2022/06/23 06:09:59;;;;;;;8.10;6.50;;;;;;;16.60;100.00;99608.97;1686874;85;21035;-86
2022/06/23 06:12:37;;;;;;;7.12;6.12;;;;;;;16.83;100.00;99608.88;1723753;83;21023;-86
2022/06/23 06:15:12;;;;;;;5.95;5.55;;;;;;;17.05;100.00;99605.08;1681750;84;21061;-86
2022/06/23 06:17:41;;;;;;;6.30;5.70;;;;;;;17.30;100.00;99612.16;1739109;80;21515;-86
2022/06/23 06:20:10;;;;;;;6.80;5.28;;;;;;;17.60;100.00;99606.83;1775370;80;21113;-86
2022/06/23 06:23:07;;;;;;;4.90;4.35;;;;;;;17.78;100.00;99613.01;1776011;80;21072;-87
2022/06/23 06:25:44;;;;;;;5.37;4.87;;;;;;;17.85;100.00;99608.30;1768740;80;21014;-85
2022/06/23 06:28:25;;;;;;;5.20;4.80;;;;;;;17.92;100.00;99605.23;1757072;81;21026;-86
2022/06/23 06:31:22;;;;;;;6.28;5.62;;;;;;;18.10;100.00;99608.27;1760268;81;21038;-85
2022/06/23 06:34:05;;;;;;;6.33;5.72;;;;;;;18.25;100.00;99609.50;1761025;81;21990;-86
2022/06/23 06:36:49;;;;;;;6.70;5.15;;;;;;;18.36;100.00;99603.41;1725417;82;21066;-86
2022/06/23 06:39:31;;;;;;;5.60;5.20;;;;;;;18.42;100.00;99607.91;1730068;82;21520;-85
2022/06/23 06:42:25;;;;;;;4.00;3.70;;;;;;;18.53;100.00;99611.83;1725205;83;21531;-85
2022/06/23 06:44:57;;;;;;;4.08;3.77;;;;;;;18.69;100.00;99613.37;1730350;82;20964;-85
2022/06/23 06:47:34;;;;;;;5.62;3.98;;;;;;;18.86;100.00;99612.55;1730347;82;21138;-87
2022/06/23 06:50:23;;;;;;;3.62;3.33;;;;;;;18.99;100.00;99613.16;1729702;82;20999;-85
2022/06/23 06:52:51;;;;;;;3.75;3.45;;;;;;;18.86;100.00;99611.23;1730202;83;21058;-85
2022/06/23 06:55:27;;;;;;;3.90;3.55;;;;;;;18.53;100.00;99617.09;1730200;82;21064;-85
2022/06/23 06:58:18;;;;;;;3.85;3.55;;;;;;;18.39;100.00;99614.86;1726971;82;21050;-88
2022/06/23 07:01:09;;;;;;;3.10;2.90;;;;;;;18.34;100.00;99617.27;1738914;80;21146;-84
2022/06/23 07:03:39;;;;;;;3.17;2.87;;;;;;;18.18;100.00;99618.36;1716413;83;26896;-85
2022/06/23 07:06:30;;;;;;;2.30;2.10;;;;;;;18.09;100.00;99617.66;1753461;80;21576;-85
2022/06/23 07:09:14;;;;;;;3.95;2.62;;;;;;;18.13;100.00;99615.78;1731864;81;21038;-84
2022/06/23 07:11:53;;;;;;;2.27;2.08;;;;;;;18.28;100.00;99617.52;1741482;80;21572;-84
2022/06/23 07:14:25;;;;;;;2.60;2.40;;;;;;;18.50;100.00;99612.23;1744839;81;21411;-84
2022/06/23 07:17:00;;;;;;;2.22;2.02;;;;;;;18.69;100.00;99608.09;1743927;81;21347;-85
2022/06/23 07:19:53;;;;;;;4.65;2.30;;;;;;;18.85;100.00;99598.56;1744660;80;20967;-85
2022/06/23 07:22:34;;;;;;;3.83;2.47;;;;;;;19.03;100.00;99606.47;1754635;80;21642;-85
2022/06/23 07:25:12;;;;;;;4.92;2.65;;;;;;;19.15;100.00;99608.08;1705093;83;21058;-84
2022/06/23 07:27:50;;;;;;;4.60;3.00;;;;;;;19.29;100.00;99611.56;1712381;83;21214;-87
2022/06/23 07:30:33;;;;;;;2.92;2.60;;;;;;;19.41;100.00;99619.23;1695156;83;21526;-85
2022/06/23 07:33:18;;;;;;;4.12;2.65;;;;;;;19.49;100.00;99622.20;1684736;83;21550;-85
2022/06/23 07:36:04;;;;;;;5.00;2.80;;;;;;;19.58;100.00;99626.81;1681730;83;21590;-85
2022/06/23 07:38:54;;;;;;;2.52;2.33;;;;;;;19.69;100.00;99634.14;1684671;83;22936;-86
2022/06/23 07:42:00;;;;;;;3.60;2.47;;;;;;;19.76;100.00;99634.96;1699849;83;22008;-84
2022/06/23 07:44:39;;;;;;;3.20;2.37;;;;;;;19.83;100.00;99629.19;1703965;83;21034;-87
2022/06/23 07:47:07;;;;;;;3.02;2.75;;;;;;;19.99;100.00;99632.52;1698952;83;21804;-85
2022/06/23 07:49:35;;;;;;;2.92;2.62;;;;;;;20.16;100.00;99639.54;1717016;82;21040;-84
2022/06/23 07:52:05;;;;;;;2.33;2.15;;;;;;;20.29;100.00;99642.70;1719728;82;21045;-85
2022/06/23 07:54:33;;;;;;;4.70;3.27;;;;;;;20.42;100.00;99647.17;1713722;83;21168;-85
2022/06/23 07:57:00;;;;;;;4.37;2.55;;;;;;;20.53;100.00;99642.58;1713717;83;21540;-85
2022/06/23 07:59:32;;;;;;;3.77;2.58;;;;;;;20.67;100.00;99647.88;1713652;83;21560;-85
2022/06/23 08:02:08;;;;;;;2.85;2.65;;;;;;;20.79;100.00;99644.92;1710324;83;21026;-86
2022/06/23 08:05:03;;;;;;;2.92;2.42;;;;;;;20.89;100.00;99642.67;1708430;83;21086;-87
2022/06/23 08:07:31;;;;;;;2.55;2.35;;;;;;;20.92;100.00;99649.38;1697930;83;21027;-84
2022/06/23 08:10:04;;;;;;;2.40;2.12;;;;;;;21.05;100.00;99661.25;1684844;84;21489;-85
2022/06/23 08:12:55;;;;;;;3.80;2.40;;;;;;;21.13;100.00;99665.52;1699880;83;21023;-85
2022/06/23 08:19:02;;;;;;;3.65;2.67;;;;;;;21.46;100.00;99670.38;1713091;83;21066;-85
2022/06/23 08:21:44;;;;;;;2.62;2.17;;;;;;;21.49;100.00;99677.92;1713743;83;21141;-86
2022/06/23 08:24:26;;;;;;;2.33;2.05;;;;;;;21.37;100.00;99675.91;1698830;83;21042;-84
2022/06/23 08:26:56;;;;;;;2.02;1.80;;;;;;;21.38;100.00;99678.87;1697752;83;21066;-84
2022/06/23 08:29:29;;;;;;;2.30;2.10;;;;;;;21.35;100.00;99685.09;1757816;79;21163;-85
2022/06/23 08:31:58;;;;;;;2.42;2.22;;;;;;;21.36;100.00;99689.37;1757857;79;21068;-85
2022/06/23 08:34:26;;;;;;;3.87;2.50;;;;;;;21.38;100.00;99693.42;1766793;79;21794;-85
2022/06/23 08:36:59;;;;;;;2.90;2.45;;;;;;;21.43;100.00;99688.31;1745455;81;21069;-85
2022/06/23 08:39:40;;;;;;;3.22;2.58;;;;;;;21.47;100.00;99693.20;1749317;81;21271;-85
2022/06/23 08:42:34;;;;;;;2.30;2.10;;;;;;;21.48;100.00;99691.66;1759259;79;21065;-85
2022/06/23 08:45:23;;;;;;;3.72;2.12;;;;;;;21.55;100.00;99680.52;1759606;81;21009;-86
2022/06/23 08:48:02;;;;;;;3.65;2.20;;;;;;;21.61;100.00;99672.80;1744753;79;21167;-85
2022/06/23 08:50:43;;;;;;;2.10;1.90;;;;;;;21.64;100.00;99682.46;1749099;79;20927;-85
2022/06/23 08:53:27;;;;;;;2.15;2.05;;;;;;;21.67;100.00;99685.20;1758995;81;21061;-85
2022/06/23 08:56:11;;;;;;;2.02;1.90;;;;;;;21.74;100.00;99682.83;1731162;81;21011;-85
2022/06/23 08:58:50;;;;;;;2.90;2.17;;;;;;;21.83;100.00;99685.23;1751177;80;21986;-84
2022/06/23 09:01:34;;;;;;;3.25;2.10;;;;;;;21.87;100.00;99688.55;1743734;79;21208;-86
2022/06/23 09:04:15;;;;;;;2.05;1.60;;;;;;;22.04;100.00;99692.84;1756128;80;21038;-84
2022/06/23 09:07:12;;;;;;;2.20;1.67;;;;;;;22.23;100.00;99699.56;1759186;80;21045;-88
2022/06/23 09:10:01;;;;;;;1.60;1.50;;;;;;;22.19;85.94;99705.78;1733714;81;20971;-84
2022/06/23 09:12:39;;;;;;;1.72;1.62;;;;;;;22.11;86.85;99708.72;1749857;81;21007;-85
2022/06/23 09:15:35;;;;;;;1.70;1.60;;;;;;;22.00;93.49;99716.81;1753715;79;21038;-85
2022/06/23 09:18:31;;;;;;;1.57;1.47;;;;;;;21.87;85.92;99719.54;1754211;81;21549;-86
2022/06/23 09:21:16;;;;;;;1.75;1.65;;;;;;;21.72;90.12;99725.93;1755099;81;21010;-86
2022/06/23 09:24:09;;;;;;;1.57;1.47;;;;;;;21.67;88.68;99720.43;1764453;81;21014;-84
2022/06/23 09:26:51;;;;;;;1.57;1.47;;;;;;;21.59;85.85;99723.34;1753259;79;21052;-85
2022/06/23 09:29:52;;;;;;;1.50;1.40;;;;;;;21.57;83.53;99720.05;1747487;80;21215;-84
2022/06/23 09:32:28;;;;;;;2.52;1.70;;;;;;;21.60;87.37;99722.30;1756217;80;21480;-85
2022/06/23 09:35:40;;;;;;;1.95;1.65;;;;;;;21.65;91.99;99724.32;1745575;81;21540;-84
2022/06/23 09:38:47;;;;;;;2.02;1.80;;;;;;;21.66;89.93;99727.27;1744767;81;21045;-84
2022/06/23 09:41:48;;;;;;;1.62;1.52;;;;;;;21.54;88.34;99729.23;1766299;79;21473;-86
2022/06/23 09:44:31;;;;;;;;;;;;;;;21.49;93.62;99735.66;1748427;79;21779;-84
2022/06/23 09:47:22;;;;;;;1.80;1.70;;;;;;;21.41;85.84;99735.39;1750207;81;20174;-88
2022/06/23 09:50:14;;;;;;;2.85;1.92;;;;;;;21.21;97.14;99743.38;1759755;80;21083;-84
2022/06/23 09:53:02;;;;;;;2.95;1.60;;;;;;;21.10;96.04;99747.47;1726835;81;21523;-84
2022/06/23 09:55:44;;;;;;;1.82;1.72;;;;;;;21.09;94.89;99743.69;1746703;81;21044;-85
2022/06/23 09:58:28;;;;;;;1.98;1.87;;;;;;;21.14;92.81;99741.75;1747767;81;21138;-87
2022/06/23 10:01:29;;;;;;;2.15;1.80;;;;;;;21.12;96.56;99748.58;1732595;80;21650;-85
2022/06/23 10:04:29;;;;;;;2.33;2.02;;;;;;;21.07;100.00;99750.52;1763189;80;22191;-86
2022/06/23 10:07:31;;;;;;;2.50;2.30;;;;;;;21.20;100.00;99746.21;1750355;81;21050;-86
2022/06/23 10:10:25;;;;;;;2.25;2.05;;;;;;;21.39;100.00;99745.37;1746116;81;21554;-85
2022/06/23 10:13:16;;;;;;;3.62;2.37;;;;;;;21.55;100.00;99748.05;1745212;81;21980;-85
2022/06/23 10:16:12;;;;;;;2.20;2.10;;;;;;;21.63;100.00;99754.20;1766752;79;21014;-85
2022/06/23 10:18:57;;;;;;;2.00;1.90;;;;;;;21.59;95.50;99751.95;1756580;79;21535;-85
2022/06/23 10:22:00;;;;;;;3.83;3.30;;;;;;;21.50;94.47;99761.12;1752219;81;21089;-84
2022/06/23 10:24:52;;;;;;;3.25;2.80;;;;;;;21.37;100.00;99763.28;1755133;79;21515;-83
2022/06/23 10:27:28;;;;;;;3.80;2.65;;;;;;;21.33;99.50;99767.38;1754427;79;21460;-86
2022/06/23 10:30:22;;;;;;;2.83;2.15;;;;;;;21.31;97.58;99769.94;1738999;82;21081;-84
2022/06/23 10:33:06;;;;;;;2.47;2.27;;;;;;;21.30;100.00;99764.34;1738343;82;21476;-85
2022/06/23 10:36:16;;;;;;;2.25;1.60;;;;;;;21.29;100.00;99768.80;1750826;81;21516;-84
2022/06/23 10:39:08;;;;;;;1.92;1.75;;;;;;;21.25;100.00;99763.11;1729695;80;21037;-84
2022/06/23 10:42:01;;;;;;;3.47;1.80;;;;;;;21.23;100.00;99755.08;1735873;79;21133;-84
2022/06/23 10:44:51;;;;;;;2.08;1.60;;;;;;;21.30;100.00;99758.52;1729654;82;21649;-86
2022/06/23 10:47:51;;;;;;;1.92;1.57;;;;;;;21.46;99.17;99757.27;1702218;83;21585;-85
2022/06/23 10:50:45;;;;;;;1.50;1.40;;;;;;;21.72;100.00;99759.05;1745240;81;21734;-84
2022/06/23 10:53:32;;;;;;;1.60;1.50;;;;;;;21.96;96.53;99762.50;1742687;81;21096;-84
2022/06/23 10:56:27;;;;;;;2.00;1.50;;;;;;;22.10;93.43;99760.60;1750361;81;21842;-84
2022/06/23 10:59:06;;;;;;;3.27;1.82;;;;;;;22.16;97.02;99768.53;1749076;81;21026;-84
2022/06/23 11:02:04;;;;;;;1.57;1.45;;;;;;;22.08;86.79;99761.31;1735984;80;21011;-84
2022/06/23 11:04:52;;;;;;;1.60;1.50;;;;;;;21.98;93.11;99758.64;1742583;81;21062;-85
2022/06/23 11:07:47;;;;;;;1.50;1.40;;;;;;;22.03;86.04;99769.93;1741269;81;21000;-84
2022/06/23 11:10:49;;;;;;;1.77;1.35;;;;;;;22.04;86.24;99775.51;1735078;82;21799;-84
2022/06/23 11:13:35;;;;;;;;;;;;;;;22.02;89.93;99782.36;1721345;82;21061;-84
2022/06/23 11:16:20;;;;;;;2.70;1.40;;;;;;;22.05;84.77;99779.79;1743414;82;20178;-84
2022/06/23 11:19:18;;;;;;;1.55;1.45;;;;;;;22.05;82.70;99775.81;1728786;82;21031;-88
2022/06/23 11:22:27;;;;;;;1.50;1.40;;;;;;;22.03;83.11;99772.58;1751692;81;21025;-83
2022/06/23 11:25:16;;;;;;;3.30;1.45;;;;;;;;;;1716518;83;21186;-85
2022/06/23 11:28:30;;;;;;;1.85;1.40;;;;;;;21.72;82.29;99776.77;1714837;83;21023;-85
2022/06/23 11:31:18;;;;;;;2.37;1.62;;;;;;;;;;1688221;83;21065;-85
2022/06/23 11:34:33;;;;;;;1.30;1.20;;;;;;;21.38;97.09;99786.10;1686627;82;21023;-84
2022/06/23 11:37:15;;;;;;;1.45;1.35;;;;;;;21.44;95.08;99785.27;1685041;84;21026;-85
2022/06/23 11:39:53;;;;;;;1.50;1.40;;;;;;;21.51;95.07;99789.23;1700285;84;21198;-86
2022/06/23 11:42:51;;;;;;;2.83;1.60;;;;;;;21.67;83.24;99793.28;1666531;84;21011;-85
2022/06/23 11:45:36;;;;;;;1.40;1.30;;;;;;;21.91;90.65;99790.98;1694965;84;21050;-85
2022/06/23 11:48:14;;;;;;;1.65;1.40;;;;;;;22.19;82.52;99776.04;1683661;84;21082;-85
2022/06/23 11:51:08;;;;;;;2.20;1.45;;;;;;;22.21;77.44;99781.15;1672715;84;21094;-85
2022/06/23 11:54:05;;;;;;;3.80;1.42;;;;;;;22.04;80.44;99790.91;1716434;83;21145;-84
2022/06/23 11:57:13;;;;;;;1.90;1.20;;;;;;;21.88;81.95;99792.72;1716880;83;22093;-85
2022/06/23 12:00:02;;;;;;;1.55;1.40;;;;;;;21.81;81.02;99791.93;1689477;83;21126;-86
2022/06/23 12:02:42;;;;;;;2.00;1.30;;;;;;;21.86;86.63;99794.76;1716315;82;21057;-88
2022/06/23 12:05:54;;;;;;;1.50;1.40;;;;;;;21.95;89.49;99801.45;1709857;83;21058;-85
2022/06/23 12:08:52;;;;;;;1.52;1.42;;;;;;;22.03;88.17;99799.09;1693837;83;21833;-85
2022/06/23 12:11:20;;;;;;;3.02;1.25;;;;;;;22.15;87.76;99803.21;1673403;83;21026;-85
2022/06/23 12:13:48;;;;;;;2.85;1.50;;;;;;;22.28;88.60;99802.30;1698497;84;21068;-85
2022/06/23 12:16:17;;;;;;;2.55;1.35;;;;;;;22.33;79.54;99804.63;1715940;83;21564;-87
2022/06/23 12:19:04;;;;;;;2.77;1.40;;;;;;;22.41;86.64;99807.58;1696556;82;21089;-86
2022/06/23 12:21:42;;;;;;;1.90;1.10;;;;;;;22.54;75.59;99808.02;1660050;86;21188;-86
2022/06/23 12:24:42;;;;;;;1.20;1.15;;;;;;;22.67;70.07;99814.55;1676527;84;21071;-87
2022/06/23 12:27:23;;;;;;;2.55;1.30;;;;;;;22.78;70.78;99816.22;1689811;83;21074;-88
2022/06/23 12:30:06;;;;;;;0.98;0.98;;;;;;;22.88;64.48;99813.08;1682022;84;21784;-93
2022/06/23 12:33:04;;;;;;;7.17;1.27;;;;;;;22.94;64.15;99814.86;1690244;82;20974;-89
2022/06/23 12:35:43;;;;;;;0.98;0.98;;;;;;;23.04;63.83;99810.38;1682521;84;21267;-87
2022/06/23 12:38:43;;;;;;;1.60;1.00;;;;;;;23.00;63.38;99813.49;1682542;83;20968;-86
2022/06/23 12:41:18;;;;;;;1.72;1.10;;;;;;;22.98;60.85;99814.22;1715421;83;21036;-87
2022/06/23 12:44:12;;;;;;;1.02;0.98;;;;;;;23.08;62.93;99811.59;1679614;84;21546;-87
2022/06/23 12:46:59;;;;;;;0.90;0.90;;;;;;;23.24;62.96;99808.41;1657692;85;21074;-88
2022/06/23 12:49:53;;;;;;;1.40;1.30;;;;;;;23.42;60.67;99816.91;1643629;85;21141;-89
2022/06/23 12:52:53;;;;;;;1.00;1.00;;;;;;;23.57;54.04;99815.73;1679767;84;21077;-87
2022/06/23 12:56:01;;;;;;;0.90;0.90;;;;;;;23.61;51.68;99810.30;1681886;83;20983;-89
2022/06/23 12:58:43;;;;;;;2.05;0.90;;;;;;;23.58;53.00;99807.56;1664447;85;21496;-88